sensor_id;sensor_type;location;lat;lon;timestamp;pressure;altitude;pressure_sealevel;temperature;humidity
55032;BME280;40928;51.076;7.950;2022-12-18T00:01:23;98153.63;;;-10.17;93.59
55032;BME280;40928;51.076;7.950;2022-12-18T00:03:50;98152.88;;;-10.19;93.17
55032;BME280;40928;51.076;7.950;2022-12-18T00:06:16;98150.28;;;-10.19;92.70
55032;BME280;40928;51.076;7.950;2022-12-18T00:08:43;98150.47;;;-10.22;92.61
55032;BME280;40928;51.076;7.950;2022-12-18T00:11:12;98140.06;;;-10.20;93.09
55032;BME280;40928;51.076;7.950;2022-12-18T00:13:42;98137.88;;;-10.28;93.62
55032;BME280;40928;51.076;7.950;2022-12-18T00:16:15;98134.13;;;-10.22;93.28
55032;BME280;40928;51.076;7.950;2022-12-18T00:18:41;98125.47;;;-10.21;92.65
55032;BME280;40928;51.076;7.950;2022-12-18T00:21:09;98129.72;;;-10.20;93.10
55032;BME280;40928;51.076;7.950;2022-12-18T00:23:36;98128.97;;;-10.22;92.37
55032;BME280;40928;51.076;7.950;2022-12-18T00:26:10;98133.38;;;-10.25;92.83
55032;BME280;40928;51.076;7.950;2022-12-18T00:28:39;98140.47;;;-10.28;92.87
55032;BME280;40928;51.076;7.950;2022-12-18T00:31:16;98137.97;;;-10.30;93.20
55032;BME280;40928;51.076;7.950;2022-12-18T00:33:42;98151.41;;;-10.23;93.28
55032;BME280;40928;51.076;7.950;2022-12-18T00:36:14;98151.31;;;-10.21;92.79
55032;BME280;40928;51.076;7.950;2022-12-18T00:38:41;98149.88;;;-10.27;92.20
55032;BME280;40928;51.076;7.950;2022-12-18T00:41:08;98158.69;;;-10.31;91.99
55032;BME280;40928;51.076;7.950;2022-12-18T00:43:35;98153.53;;;-10.31;92.63
55032;BME280;40928;51.076;7.950;2022-12-18T00:46:01;98159.59;;;-10.32;91.76
55032;BME280;40928;51.076;7.950;2022-12-18T00:48:26;98155.97;;;-10.44;91.79
55032;BME280;40928;51.076;7.950;2022-12-18T00:50:52;98155.19;;;-10.46;91.98
55032;BME280;40928;51.076;7.950;2022-12-18T00:53:18;98151.84;;;-10.48;92.33
55032;BME280;40928;51.076;7.950;2022-12-18T00:55:44;98146.84;;;-10.51;91.55
55032;BME280;40928;51.076;7.950;2022-12-18T00:58:11;98141.59;;;-10.50;92.02
55032;BME280;40928;51.076;7.950;2022-12-18T01:00:37;98140.00;;;-10.52;92.54
55032;BME280;40928;51.076;7.950;2022-12-18T01:03:04;98143.59;;;-10.55;93.15
55032;BME280;40928;51.076;7.950;2022-12-18T01:05:30;98146.94;;;-10.53;93.55
55032;BME280;40928;51.076;7.950;2022-12-18T01:07:56;98140.63;;;-10.47;93.92
55032;BME280;40928;51.076;7.950;2022-12-18T01:10:22;98148.28;;;-10.46;91.83
55032;BME280;40928;51.076;7.950;2022-12-18T01:12:48;98141.44;;;-10.47;91.98
55032;BME280;40928;51.076;7.950;2022-12-18T01:15:14;98138.94;;;-10.48;92.46
55032;BME280;40928;51.076;7.950;2022-12-18T01:17:42;98134.84;;;-10.52;92.22
55032;BME280;40928;51.076;7.950;2022-12-18T01:20:10;98147.00;;;-10.54;91.98
55032;BME280;40928;51.076;7.950;2022-12-18T01:22:37;98130.75;;;-10.57;91.95
55032;BME280;40928;51.076;7.950;2022-12-18T01:25:04;98132.81;;;-10.63;91.82
55032;BME280;40928;51.076;7.950;2022-12-18T01:27:31;98120.81;;;-10.64;91.94
55032;BME280;40928;51.076;7.950;2022-12-18T01:29:56;98123.47;;;-10.66;91.89
55032;BME280;40928;51.076;7.950;2022-12-18T01:32:22;98131.38;;;-10.69;91.33
55032;BME280;40928;51.076;7.950;2022-12-18T01:34:49;98114.84;;;-10.82;92.16
55032;BME280;40928;51.076;7.950;2022-12-18T01:37:14;98114.84;;;-10.82;92.07
55032;BME280;40928;51.076;7.950;2022-12-18T01:39:40;98114.31;;;-10.89;92.22
55032;BME280;40928;51.076;7.950;2022-12-18T01:42:12;98131.34;;;-10.85;91.76
55032;BME280;40928;51.076;7.950;2022-12-18T01:45:08;98126.00;;;-10.82;91.37
55032;BME280;40928;51.076;7.950;2022-12-18T01:47:52;98124.34;;;-10.83;91.12
55032;BME280;40928;51.076;7.950;2022-12-18T01:50:31;98129.03;;;-10.91;91.01
55032;BME280;40928;51.076;7.950;2022-12-18T01:53:02;98129.13;;;-10.93;90.94
55032;BME280;40928;51.076;7.950;2022-12-18T01:55:31;98128.13;;;-10.90;90.77
55032;BME280;40928;51.076;7.950;2022-12-18T01:57:58;98118.50;;;-10.87;90.83
55032;BME280;40928;51.076;7.950;2022-12-18T02:00:25;98119.56;;;-10.91;90.80
55032;BME280;40928;51.076;7.950;2022-12-18T02:02:52;98121.78;;;-11.00;91.03
55032;BME280;40928;51.076;7.950;2022-12-18T02:10:52;98126.63;;;-10.94;90.81
55032;BME280;40928;51.076;7.950;2022-12-18T02:13:37;98121.31;;;-10.91;90.95
55032;BME280;40928;51.076;7.950;2022-12-18T02:16:14;98130.56;;;-10.87;91.04
55032;BME280;40928;51.076;7.950;2022-12-18T02:18:48;98131.09;;;-10.98;90.75
55032;BME280;40928;51.076;7.950;2022-12-18T02:24:29;98143.56;;;-11.06;90.98
55032;BME280;40928;51.076;7.950;2022-12-18T02:27:03;98146.97;;;-11.06;91.16
55032;BME280;40928;51.076;7.950;2022-12-18T02:29:40;98146.88;;;-11.04;90.39
55032;BME280;40928;51.076;7.950;2022-12-18T02:32:14;98138.53;;;-11.09;89.67
55032;BME280;40928;51.076;7.950;2022-12-18T02:34:43;98141.13;;;-11.09;90.42
55032;BME280;40928;51.076;7.950;2022-12-18T02:37:16;98132.69;;;-11.13;90.99
55032;BME280;40928;51.076;7.950;2022-12-18T02:39:46;98144.91;;;-11.17;90.97
55032;BME280;40928;51.076;7.950;2022-12-18T02:42:14;98137.16;;;-11.17;91.04
55032;BME280;40928;51.076;7.950;2022-12-18T02:44:50;98144.97;;;-11.18;91.43
55032;BME280;40928;51.076;7.950;2022-12-18T02:47:23;98148.75;;;-11.25;90.96
55032;BME280;40928;51.076;7.950;2022-12-18T03:01:23;98128.84;;;-11.22;90.78
55032;BME280;40928;51.076;7.950;2022-12-18T03:04:09;98124.59;;;-11.23;90.50
55032;BME280;40928;51.076;7.950;2022-12-18T03:06:42;98120.34;;;-11.24;91.18
55032;BME280;40928;51.076;7.950;2022-12-18T03:09:24;98116.31;;;-11.29;90.90
55032;BME280;40928;51.076;7.950;2022-12-18T03:12:00;98118.88;;;-11.29;92.23
55032;BME280;40928;51.076;7.950;2022-12-18T03:15:36;98101.66;;;-11.29;91.49
55032;BME280;40928;51.076;7.950;2022-12-18T03:17:38;98101.75;;;-11.30;90.66
55032;BME280;40928;51.076;7.950;2022-12-18T03:20:13;98102.81;;;-11.35;91.05
55032;BME280;40928;51.076;7.950;2022-12-18T03:22:41;98096.75;;;-11.34;90.93
55032;BME280;40928;51.076;7.950;2022-12-18T03:25:11;98090.28;;;-11.42;90.56
55032;BME280;40928;51.076;7.950;2022-12-18T03:27:43;98097.41;;;-11.48;91.25
55032;BME280;40928;51.076;7.950;2022-12-18T03:30:14;98096.44;;;-11.45;90.61
55032;BME280;40928;51.076;7.950;2022-12-18T03:32:51;98093.91;;;-11.47;91.28
55032;BME280;40928;51.076;7.950;2022-12-18T03:35:23;98094.75;;;-11.46;90.72
55032;BME280;40928;51.076;7.950;2022-12-18T03:37:51;98105.88;;;-11.45;91.66
55032;BME280;40928;51.076;7.950;2022-12-18T03:40:19;98113.47;;;-11.42;91.44
55032;BME280;40928;51.076;7.950;2022-12-18T03:45:54;98110.81;;;-11.41;91.26
55032;BME280;40928;51.076;7.950;2022-12-18T03:48:44;98104.63;;;-11.37;91.71
55032;BME280;40928;51.076;7.950;2022-12-18T03:51:26;98107.06;;;-11.34;91.17
55032;BME280;40928;51.076;7.950;2022-12-18T03:53:58;98102.03;;;-11.37;91.12
55032;BME280;40928;51.076;7.950;2022-12-18T03:56:44;98107.06;;;-11.34;91.30
55032;BME280;40928;51.076;7.950;2022-12-18T03:59:13;98105.44;;;-11.36;91.89
55032;BME280;40928;51.076;7.950;2022-12-18T04:01:45;98094.16;;;-11.34;92.45
55032;BME280;40928;51.076;7.950;2022-12-18T04:04:38;98082.84;;;-11.31;91.02
55032;BME280;40928;51.076;7.950;2022-12-18T04:07:06;98083.75;;;-11.32;92.07
55032;BME280;40928;51.076;7.950;2022-12-18T04:09:36;98092.88;;;-11.25;93.26
55032;BME280;40928;51.076;7.950;2022-12-18T04:12:04;98084.38;;;-11.27;92.63
55032;BME280;40928;51.076;7.950;2022-12-18T04:14:31;98091.97;;;-11.24;92.72
55032;BME280;40928;51.076;7.950;2022-12-18T04:17:04;98085.44;;;-11.31;92.84
55032;BME280;40928;51.076;7.950;2022-12-18T04:19:32;98091.34;;;-11.29;92.71
55032;BME280;40928;51.076;7.950;2022-12-18T04:21:58;98089.53;;;-11.27;92.82
55032;BME280;40928;51.076;7.950;2022-12-18T04:24:25;98086.88;;;-11.25;92.21
55032;BME280;40928;51.076;7.950;2022-12-18T04:27:05;98088.47;;;-11.23;92.31
55032;BME280;40928;51.076;7.950;2022-12-18T04:29:35;98081.47;;;-11.21;93.33
55032;BME280;40928;51.076;7.950;2022-12-18T04:32:10;98096.03;;;-11.20;92.97
55032;BME280;40928;51.076;7.950;2022-12-18T04:34:40;98088.38;;;-11.21;93.17
55032;BME280;40928;51.076;7.950;2022-12-18T04:37:06;98094.38;;;-11.21;92.98
55032;BME280;40928;51.076;7.950;2022-12-18T04:39:32;98089.06;;;-11.18;92.77
55032;BME280;40928;51.076;7.950;2022-12-18T04:42:03;98085.06;;;-11.23;91.96
55032;BME280;40928;51.076;7.950;2022-12-18T04:44:28;98093.53;;;-11.21;92.83
55032;BME280;40928;51.076;7.950;2022-12-18T04:46:54;98094.69;;;-11.27;91.36
55032;BME280;40928;51.076;7.950;2022-12-18T04:49:21;98098.84;;;-11.24;94.53
55032;BME280;40928;51.076;7.950;2022-12-18T04:51:46;98092.56;;;-11.19;94.21
55032;BME280;40928;51.076;7.950;2022-12-18T04:54:12;98106.81;;;-11.11;94.70
55032;BME280;40928;51.076;7.950;2022-12-18T04:56:37;98099.75;;;-11.08;94.59
55032;BME280;40928;51.076;7.950;2022-12-18T04:59:03;98105.00;;;-11.09;94.27
55032;BME280;40928;51.076;7.950;2022-12-18T05:01:29;98105.69;;;-11.06;94.23
55032;BME280;40928;51.076;7.950;2022-12-18T05:03:54;98100.44;;;-11.04;93.85
55032;BME280;40928;51.076;7.950;2022-12-18T05:06:20;98105.59;;;-11.04;94.53
55032;BME280;40928;51.076;7.950;2022-12-18T05:08:45;98105.53;;;-11.03;94.68
55032;BME280;40928;51.076;7.950;2022-12-18T05:11:13;98106.34;;;-11.02;94.33
55032;BME280;40928;51.076;7.950;2022-12-18T05:13:41;98110.47;;;-10.98;94.61
55032;BME280;40928;51.076;7.950;2022-12-18T05:16:07;98101.91;;;-10.98;94.13
55032;BME280;40928;51.076;7.950;2022-12-18T05:18:33;98099.38;;;-11.00;94.34
55032;BME280;40928;51.076;7.950;2022-12-18T05:20:59;98104.09;;;-11.08;93.61
55032;BME280;40928;51.076;7.950;2022-12-18T05:23:26;98102.44;;;-11.09;94.24
55032;BME280;40928;51.076;7.950;2022-12-18T05:25:53;98104.09;;;-11.08;94.96
55032;BME280;40928;51.076;7.950;2022-12-18T05:28:19;98102.09;;;-11.03;94.19
55032;BME280;40928;51.076;7.950;2022-12-18T05:30:52;98094.31;;;-11.02;94.66
55032;BME280;40928;51.076;7.950;2022-12-18T05:33:18;98100.28;;;-11.01;94.03
55032;BME280;40928;51.076;7.950;2022-12-18T05:35:50;98099.31;;;-10.98;94.01
55032;BME280;40928;51.076;7.950;2022-12-18T05:38:23;98089.16;;;-11.02;93.83
55032;BME280;40928;51.076;7.950;2022-12-18T05:40:49;98088.53;;;-11.07;93.81
55032;BME280;40928;51.076;7.950;2022-12-18T05:43:16;98083.63;;;-11.11;93.75
55032;BME280;40928;51.076;7.950;2022-12-18T05:45:42;98085.19;;;-11.09;93.86
55032;BME280;40928;51.076;7.950;2022-12-18T05:48:13;98086.09;;;-11.10;94.11
55032;BME280;40928;51.076;7.950;2022-12-18T05:50:40;98090.28;;;-11.07;93.98
55032;BME280;40928;51.076;7.950;2022-12-18T05:53:07;98089.69;;;-11.12;93.43
55032;BME280;40928;51.076;7.950;2022-12-18T05:55:34;98084.63;;;-11.14;93.73
55032;BME280;40928;51.076;7.950;2022-12-18T05:58:00;98092.25;;;-11.12;93.89
55032;BME280;40928;51.076;7.950;2022-12-18T06:00:26;98090.59;;;-11.13;93.83
55032;BME280;40928;51.076;7.950;2022-12-18T06:02:52;98092.25;;;-11.12;93.76
55032;BME280;40928;51.076;7.950;2022-12-18T06:05:17;98094.06;;;-11.14;93.51
55032;BME280;40928;51.076;7.950;2022-12-18T06:07:43;98090.50;;;-11.12;94.16
55032;BME280;40928;51.076;7.950;2022-12-18T06:10:09;98093.16;;;-11.13;95.17
55032;BME280;40928;51.076;7.950;2022-12-18T06:12:34;98098.09;;;-11.09;94.25
55032;BME280;40928;51.076;7.950;2022-12-18T06:15:00;98103.56;;;-11.15;93.18
55032;BME280;40928;51.076;7.950;2022-12-18T06:17:33;98104.41;;;-11.14;93.97
55032;BME280;40928;51.076;7.950;2022-12-18T06:19:59;98105.38;;;-11.17;93.75
55032;BME280;40928;51.076;7.950;2022-12-18T06:22:24;98100.53;;;-11.23;95.49
55032;BME280;40928;51.076;7.950;2022-12-18T06:24:51;98102.72;;;-11.15;95.13
55032;BME280;40928;51.076;7.950;2022-12-18T06:27:17;98102.56;;;-11.12;94.71
55032;BME280;40928;51.076;7.950;2022-12-18T06:29:42;98107.72;;;-11.12;94.08
55032;BME280;40928;51.076;7.950;2022-12-18T06:32:08;98104.25;;;-11.11;94.61
55032;BME280;40928;51.076;7.950;2022-12-18T06:34:34;98113.50;;;-11.07;95.21
55032;BME280;40928;51.076;7.950;2022-12-18T06:36:59;98117.59;;;-11.03;95.61
55032;BME280;40928;51.076;7.950;2022-12-18T06:39:28;98121.78;;;-11.00;95.41
55032;BME280;40928;51.076;7.950;2022-12-18T06:41:53;98127.63;;;-10.97;95.87
55032;BME280;40928;51.076;7.950;2022-12-18T06:44:19;98127.47;;;-10.94;95.69
55032;BME280;40928;51.076;7.950;2022-12-18T06:46:45;98132.53;;;-10.92;95.67
55032;BME280;40928;51.076;7.950;2022-12-18T06:49:10;98131.38;;;-11.04;96.36
55032;BME280;40928;51.076;7.950;2022-12-18T06:51:36;98132.00;;;-10.99;96.73
55032;BME280;40928;51.076;7.950;2022-12-18T06:54:05;98133.06;;;-10.86;96.69
55032;BME280;40928;51.076;7.950;2022-12-18T06:56:30;98114.84;;;-10.82;97.82
55032;BME280;40928;51.076;7.950;2022-12-18T06:58:56;98116.53;;;-10.81;97.25
55032;BME280;40928;51.076;7.950;2022-12-18T07:01:22;98124.94;;;-10.78;96.83
55032;BME280;40928;51.076;7.950;2022-12-18T07:03:52;98129.03;;;-10.74;99.77
55032;BME280;40928;51.076;7.950;2022-12-18T07:06:20;98112.41;;;-10.68;99.21
55032;BME280;40928;51.076;7.950;2022-12-18T07:08:47;98119.09;;;-10.64;98.14
55032;BME280;40928;51.076;7.950;2022-12-18T07:11:14;98112.09;;;-10.62;97.93
55032;BME280;40928;51.076;7.950;2022-12-18T07:13:39;98112.25;;;-10.65;97.43
55032;BME280;40928;51.076;7.950;2022-12-18T07:16:16;98118.41;;;-10.67;97.75
55032;BME280;40928;51.076;7.950;2022-12-18T07:18:42;98115.88;;;-10.69;97.69
55032;BME280;40928;51.076;7.950;2022-12-18T07:21:12;98116.81;;;-10.70;97.78
55032;BME280;40928;51.076;7.950;2022-12-18T07:23:38;98128.75;;;-10.67;97.52
55032;BME280;40928;51.076;7.950;2022-12-18T07:26:09;98115.75;;;-10.66;97.88
55032;BME280;40928;51.076;7.950;2022-12-18T07:28:39;98120.91;;;-10.66;98.66
55032;BME280;40928;51.076;7.950;2022-12-18T07:31:08;98117.94;;;-10.58;97.97
55032;BME280;40928;51.076;7.950;2022-12-18T07:33:34;98118.03;;;-10.60;98.31
55032;BME280;40928;51.076;7.950;2022-12-18T07:36:02;98121.34;;;-10.58;97.77
55032;BME280;40928;51.076;7.950;2022-12-18T07:38:29;98116.78;;;-10.52;99.72
55032;BME280;40928;51.076;7.950;2022-12-18T07:41:00;98112.28;;;-10.49;99.64
55032;BME280;40928;51.076;7.950;2022-12-18T07:43:27;98110.22;;;-10.42;100.00
55032;BME280;40928;51.076;7.950;2022-12-18T07:45:52;98113.22;;;-10.34;100.00
55032;BME280;40928;51.076;7.950;2022-12-18T07:48:18;98113.72;;;-10.27;100.00
55032;BME280;40928;51.076;7.950;2022-12-18T07:50:43;98117.81;;;-10.23;100.00
55032;BME280;40928;51.076;7.950;2022-12-18T07:53:09;98101.63;;;-10.27;100.00
55032;BME280;40928;51.076;7.950;2022-12-18T07:55:35;98101.22;;;-10.19;100.00
55032;BME280;40928;51.076;7.950;2022-12-18T07:58:04;98103.47;;;-10.13;100.00
55032;BME280;40928;51.076;7.950;2022-12-18T08:00:30;98092.66;;;-10.03;100.00
55032;BME280;40928;51.076;7.950;2022-12-18T08:02:57;98089.00;;;-9.83;100.00
55032;BME280;40928;51.076;7.950;2022-12-18T08:05:23;98071.88;;;-9.70;100.00
55032;BME280;40928;51.076;7.950;2022-12-18T08:07:49;98084.38;;;-9.62;100.00
55032;BME280;40928;51.076;7.950;2022-12-18T08:10:15;98079.59;;;-9.54;100.00
55032;BME280;40928;51.076;7.950;2022-12-18T08:12:40;98075.41;;;-9.40;100.00
55032;BME280;40928;51.076;7.950;2022-12-18T08:15:06;98073.97;;;-9.30;100.00
55032;BME280;40928;51.076;7.950;2022-12-18T08:17:32;98080.94;;;-9.16;100.00
55032;BME280;40928;51.076;7.950;2022-12-18T08:19:57;98083.91;;;-9.08;100.00
55032;BME280;40928;51.076;7.950;2022-12-18T08:22:23;98083.31;;;-8.97;100.00
55032;BME280;40928;51.076;7.950;2022-12-18T08:24:48;98075.44;;;-8.81;100.00
55032;BME280;40928;51.076;7.950;2022-12-18T08:27:14;98090.00;;;-8.49;100.00
55032;BME280;40928;51.076;7.950;2022-12-18T08:29:40;98084.59;;;-8.32;100.00
55032;BME280;40928;51.076;7.950;2022-12-18T08:32:05;98090.22;;;-8.25;100.00
55032;BME280;40928;51.076;7.950;2022-12-18T08:34:31;98074.88;;;-8.14;100.00
55032;BME280;40928;51.076;7.950;2022-12-18T08:36:56;98076.84;;;-7.90;100.00
55032;BME280;40928;51.076;7.950;2022-12-18T08:39:22;98066.88;;;-7.41;100.00
55032;BME280;40928;51.076;7.950;2022-12-18T08:41:47;98054.34;;;-7.22;100.00
55032;BME280;40928;51.076;7.950;2022-12-18T08:44:33;98057.91;;;-6.97;100.00
55032;BME280;40928;51.076;7.950;2022-12-18T08:47:05;98047.63;;;-6.73;99.55
55032;BME280;40928;51.076;7.950;2022-12-18T08:49:32;98045.72;;;-6.32;96.38
55032;BME280;40928;51.076;7.950;2022-12-18T08:51:57;98046.13;;;-5.88;93.33
55032;BME280;40928;51.076;7.950;2022-12-18T08:54:23;98042.84;;;-5.54;91.24
55032;BME280;40928;51.076;7.950;2022-12-18T08:56:49;98042.56;;;-5.38;90.76
55032;BME280;40928;51.076;7.950;2022-12-18T08:59:16;98040.28;;;-5.07;88.07
55032;BME280;40928;51.076;7.950;2022-12-18T09:01:42;98032.66;;;-4.75;86.42
55032;BME280;40928;51.076;7.950;2022-12-18T09:04:09;98054.22;;;-4.61;86.42
55032;BME280;40928;51.076;7.950;2022-12-18T09:06:35;98026.50;;;-4.28;82.70
55032;BME280;40928;51.076;7.950;2022-12-18T09:09:02;98044.94;;;-3.97;80.27
55032;BME280;40928;51.076;7.950;2022-12-18T09:11:28;98035.03;;;-3.71;78.92
55032;BME280;40928;51.076;7.950;2022-12-18T09:13:54;98027.00;;;-3.46;79.42
55032;BME280;40928;51.076;7.950;2022-12-18T09:16:22;98034.75;;;-3.02;77.51
55032;BME280;40928;51.076;7.950;2022-12-18T09:18:48;98018.91;;;-2.58;72.89
55032;BME280;40928;51.076;7.950;2022-12-18T09:21:18;98028.44;;;-2.17;70.85
55032;BME280;40928;51.076;7.950;2022-12-18T09:23:55;98047.00;;;-1.79;73.06
55032;BME280;40928;51.076;7.950;2022-12-18T09:26:22;98044.53;;;-1.51;71.06
55032;BME280;40928;51.076;7.950;2022-12-18T09:28:49;98046.91;;;-1.28;68.82
55032;BME280;40928;51.076;7.950;2022-12-18T09:31:16;98052.28;;;-1.20;65.41
55032;BME280;40928;51.076;7.950;2022-12-18T09:33:42;98034.47;;;-1.16;65.38
55032;BME280;40928;51.076;7.950;2022-12-18T09:36:09;98030.06;;;-1.06;64.88
55032;BME280;40928;51.076;7.950;2022-12-18T09:38:36;98047.03;;;-1.00;65.70
55032;BME280;40928;51.076;7.950;2022-12-18T09:41:23;98068.00;;;-0.81;65.45
55032;BME280;40928;51.076;7.950;2022-12-18T09:44:00;98038.00;;;-0.78;62.66
55032;BME280;40928;51.076;7.950;2022-12-18T09:46:30;98029.88;;;-0.85;62.74
55032;BME280;40928;51.076;7.950;2022-12-18T09:49:07;98028.47;;;-0.69;63.99
55032;BME280;40928;51.076;7.950;2022-12-18T09:51:39;98036.81;;;-0.46;61.22
55032;BME280;40928;51.076;7.950;2022-12-18T09:54:15;98044.31;;;-0.23;59.15
55032;BME280;40928;51.076;7.950;2022-12-18T09:56:44;98051.63;;;0.11;57.05
55032;BME280;40928;51.076;7.950;2022-12-18T09:59:23;98045.59;;;0.28;56.10
55032;BME280;40928;51.076;7.950;2022-12-18T10:01:50;98036.47;;;0.69;55.39
55032;BME280;40928;51.076;7.950;2022-12-18T10:04:16;98019.06;;;0.94;53.64
55032;BME280;40928;51.076;7.950;2022-12-18T10:06:58;98024.72;;;0.99;53.34
55032;BME280;40928;51.076;7.950;2022-12-18T10:09:43;98024.66;;;0.91;51.10
55032;BME280;40928;51.076;7.950;2022-12-18T10:19:59;98014.75;;;0.85;50.11
55032;BME280;40928;51.076;7.950;2022-12-18T10:22:41;98023.78;;;0.82;51.90
55032;BME280;40928;51.076;7.950;2022-12-18T10:25:34;98013.72;;;0.78;51.14
55032;BME280;40928;51.076;7.950;2022-12-18T10:28:13;98007.34;;;0.62;50.26
55032;BME280;40928;51.076;7.950;2022-12-18T10:30:41;98010.69;;;0.72;51.43
55032;BME280;40928;51.076;7.950;2022-12-18T10:33:18;98029.69;;;0.66;50.11
55032;BME280;40928;51.076;7.950;2022-12-18T10:35:45;98033.09;;;0.77;49.44
55032;BME280;40928;51.076;7.950;2022-12-18T10:43:46;97989.72;;;0.81;51.46
55032;BME280;40928;51.076;7.950;2022-12-18T10:46:14;97978.44;;;0.88;49.92
55032;BME280;40928;51.076;7.950;2022-12-18T10:48:52;97967.16;;;0.96;49.12
55032;BME280;40928;51.076;7.950;2022-12-18T10:51:26;97959.59;;;0.93;48.73
55032;BME280;40928;51.076;7.950;2022-12-18T10:54:04;97932.41;;;0.84;49.47
55032;BME280;40928;51.076;7.950;2022-12-18T10:56:33;97943.84;;;0.75;48.03
55032;BME280;40928;51.076;7.950;2022-12-18T10:59:06;97937.81;;;0.83;47.65
55032;BME280;40928;51.076;7.950;2022-12-18T11:04:31;97927.59;;;0.80;47.74
55032;BME280;40928;51.076;7.950;2022-12-18T11:06:58;97943.25;;;1.08;46.71
55032;BME280;40928;51.076;7.950;2022-12-18T11:09:27;97936.97;;;1.35;46.78
55032;BME280;40928;51.076;7.950;2022-12-18T11:11:55;97931.81;;;1.60;46.89
55032;BME280;40928;51.076;7.950;2022-12-18T11:16:55;97910.03;;;2.01;46.61
55032;BME280;40928;51.076;7.950;2022-12-18T11:19:39;97918.41;;;1.96;45.32
55032;BME280;40928;51.076;7.950;2022-12-18T11:22:25;97905.22;;;1.96;45.76
55032;BME280;40928;51.076;7.950;2022-12-18T11:25:05;97904.09;;;2.07;45.62
55032;BME280;40928;51.076;7.950;2022-12-18T11:27:32;97906.28;;;2.20;44.76
55032;BME280;40928;51.076;7.950;2022-12-18T11:30:36;97909.22;;;2.17;45.48
55032;BME280;40928;51.076;7.950;2022-12-18T11:33:09;97912.69;;;2.34;45.39
55032;BME280;40928;51.076;7.950;2022-12-18T11:35:52;97903.47;;;2.30;44.75
55032;BME280;40928;51.076;7.950;2022-12-18T11:38:32;97904.28;;;2.05;44.99
55032;BME280;40928;51.076;7.950;2022-12-18T11:43:50;97883.66;;;1.84;45.46
55032;BME280;40928;51.076;7.950;2022-12-18T11:46:26;97895.84;;;1.85;45.53
55032;BME280;40928;51.076;7.950;2022-12-18T11:49:34;97888.03;;;1.59;46.00
55032;BME280;40928;51.076;7.950;2022-12-18T11:52:28;97899.91;;;1.63;46.07
55032;BME280;40928;51.076;7.950;2022-12-18T11:55:01;97905.97;;;1.55;46.42
55032;BME280;40928;51.076;7.950;2022-12-18T11:57:43;97899.25;;;1.61;46.50
55032;BME280;40928;51.076;7.950;2022-12-18T12:00:19;97913.25;;;1.70;46.56
55032;BME280;40928;51.076;7.950;2022-12-18T12:16:41;97860.44;;;1.20;48.73
55032;BME280;40928;51.076;7.950;2022-12-18T12:22:36;97837.28;;;0.89;49.00
55032;BME280;40928;51.076;7.950;2022-12-18T12:28:37;97834.16;;;0.59;49.89
55032;BME280;40928;51.076;7.950;2022-12-18T12:31:08;97846.31;;;0.60;49.74
55032;BME280;40928;51.076;7.950;2022-12-18T12:34:07;97829.69;;;0.51;50.49
55032;BME280;40928;51.076;7.950;2022-12-18T12:36:50;97840.69;;;0.55;50.87
55032;BME280;40928;51.076;7.950;2022-12-18T12:39:21;97840.50;;;0.48;51.43
55032;BME280;40928;51.076;7.950;2022-12-18T12:41:48;97856.94;;;0.32;51.93
55032;BME280;40928;51.076;7.950;2022-12-18T12:44:42;97853.81;;;0.28;52.00
55032;BME280;40928;51.076;7.950;2022-12-18T12:47:20;97850.84;;;0.23;52.72
55032;BME280;40928;51.076;7.950;2022-12-18T12:49:54;97847.75;;;0.28;52.68
55032;BME280;40928;51.076;7.950;2022-12-18T12:55:27;97847.66;;;0.20;53.13
55032;BME280;40928;51.076;7.950;2022-12-18T12:58:07;97834.53;;;0.20;52.81
55032;BME280;40928;51.076;7.950;2022-12-18T13:00:57;97838.47;;;0.16;53.82
55032;BME280;40928;51.076;7.950;2022-12-18T13:03:45;97841.91;;;0.16;54.39
55032;BME280;40928;51.076;7.950;2022-12-18T13:06:28;97837.91;;;0.12;54.26
55032;BME280;40928;51.076;7.950;2022-12-18T13:09:01;97827.88;;;0.07;55.88
55032;BME280;40928;51.076;7.950;2022-12-18T13:11:50;97827.41;;;0.12;56.65
55032;BME280;40928;51.076;7.950;2022-12-18T13:14:37;97822.78;;;0.06;56.07
55032;BME280;40928;51.076;7.950;2022-12-18T13:22:36;97832.78;;;-0.16;56.90
55032;BME280;40928;51.076;7.950;2022-12-18T13:25:35;97835.75;;;-0.29;58.55
55032;BME280;40928;51.076;7.950;2022-12-18T13:28:03;97837.34;;;-0.36;57.83
55032;BME280;40928;51.076;7.950;2022-12-18T13:45:59;97851.72;;;-0.86;60.96
55032;BME280;40928;51.076;7.950;2022-12-18T13:48:26;97849.34;;;-0.80;60.93
55032;BME280;40928;51.076;7.950;2022-12-18T13:50:57;97854.47;;;-0.88;61.28
55032;BME280;40928;51.076;7.950;2022-12-18T13:53:51;97861.75;;;-1.10;62.17
55032;BME280;40928;51.076;7.950;2022-12-18T13:56:20;97857.09;;;-1.26;63.05
55032;BME280;40928;51.076;7.950;2022-12-18T13:59:04;97865.84;;;-1.45;64.12
55032;BME280;40928;51.076;7.950;2022-12-18T14:01:33;97863.50;;;-1.48;64.45
55032;BME280;40928;51.076;7.950;2022-12-18T14:04:18;97867.25;;;-1.60;66.80
55032;BME280;40928;51.076;7.950;2022-12-18T14:06:44;97858.47;;;-1.79;66.94
55032;BME280;40928;51.076;7.950;2022-12-18T14:09:15;97855.31;;;-1.82;66.03
55032;BME280;40928;51.076;7.950;2022-12-18T14:11:50;97853.13;;;-1.87;66.33
55032;BME280;40928;51.076;7.950;2022-12-18T14:14:17;97862.19;;;-2.21;67.07
55032;BME280;40928;51.076;7.950;2022-12-18T14:16:43;97860.53;;;-2.22;68.00
55032;BME280;40928;51.076;7.950;2022-12-18T14:19:16;97867.00;;;-2.16;67.63
55032;BME280;40928;51.076;7.950;2022-12-18T14:21:47;97856.69;;;-2.27;67.79
55032;BME280;40928;51.076;7.950;2022-12-18T14:24:19;97850.91;;;-2.31;68.23
55032;BME280;40928;51.076;7.950;2022-12-18T14:26:46;97856.41;;;-2.34;68.80
55032;BME280;40928;51.076;7.950;2022-12-18T14:29:23;97860.50;;;-2.51;68.70
55032;BME280;40928;51.076;7.950;2022-12-18T14:34:33;97843.69;;;-2.58;69.46
55032;BME280;40928;51.076;7.950;2022-12-18T14:36:58;97832.44;;;-2.59;68.66
55032;BME280;40928;51.076;7.950;2022-12-18T14:39:24;97835.81;;;-2.68;67.98
55032;BME280;40928;51.076;7.950;2022-12-18T14:41:51;97836.50;;;-2.76;68.36
55032;BME280;40928;51.076;7.950;2022-12-18T14:44:16;97831.72;;;-2.71;69.00
55032;BME280;40928;51.076;7.950;2022-12-18T14:46:44;97829.50;;;-2.76;68.98